This is the latest recevied weather packets stored in our database for station/object WB0OCV. If no packets are shown the sender has not sent any weather packets the latest 10 day(s).
| Time | Temp. | Humidity | Pressure | Rain* | Wind** | Luminosity | Snow |
|---|---|---|---|---|---|---|---|
| 1777666011 | 15.56° C | 51% | 1011.6 hPa | 0 mm | - | 517 W/m² | - |
| 1777665406 | 15.56° C | 51% | 1011.4 hPa | 0 mm | - | 546 W/m² | - |
| 1777664191 | 16.11° C | 51% | 1011.6 hPa | 0 mm | - | 597 W/m² | - |
| 1777663889 | 15.56° C | 52% | 1011.3 hPa | 0 mm | - | 612 W/m² | - |
| 1777663586 | 16.67° C | 50% | 1011.5 hPa | 0 mm | - | 622 W/m² | - |
| 1777663283 | 16.67° C | 53% | 1011.4 hPa | 0 mm | - | 646 W/m² | - |
| 1777662980 | 16.11° C | 53% | 1011.3 hPa | 0 mm | - | 649 W/m² | - |
| 1777662374 | 16.67° C | 50% | 1011.5 hPa | 0 mm | - | 670 W/m² | - |
| 1777662069 | 16.11° C | 51% | 1011.4 hPa | 0 mm | - | 681 W/m² | - |
| 1777661157 | 16.11° C | 52% | 1011.5 hPa | 0 mm | - | 709 W/m² | - |
| 1777660549 | 16.67° C | 50% | 1011.6 hPa | 0 mm | - | 727 W/m² | - |
| 1777660246 | 16.67° C | 46% | 1011.5 hPa | 0 mm | - | 738 W/m² | - |
| 1777659942 | 16.67° C | 51% | 1011.5 hPa | 0 mm | - | 744 W/m² | - |
| 1777659639 | 16.67° C | 50% | 1011.6 hPa | 0 mm | - | 751 W/m² | - |
| 1777659336 | 16.67° C | 51% | 1011.5 hPa | 0 mm | - | 759 W/m² | - |
| 1777659033 | 16.11° C | 51% | 1011.5 hPa | 0 mm | - | 765 W/m² | - |
| 1777655090 | 15.56° C | 49% | 1011.9 hPa | 0 mm | - | 736 W/m² | - |
| 1777653577 | 15.56° C | 50% | 1011.9 hPa | 0 mm | - | 400 W/m² | - |
| 1777652666 | 15° C | 50% | 1011.8 hPa | 0 mm | - | 935 W/m² | - |
| 1777652363 | 15.56° C | 49% | 1011.8 hPa | 0 mm | - | 946 W/m² | - |
| 1777652060 | 15.56° C | 52% | 1012 hPa | 0 mm | - | 418 W/m² | - |
| 1777651757 | 15° C | 54% | 1012 hPa | 0 mm | - | 503 W/m² | - |
| 1777650242 | 16.11° C | 51% | 1012 hPa | 0 mm | - | 283 W/m² | - |
| 1777649939 | 15° C | 53% | 1012 hPa | 0 mm | - | 494 W/m² | - |
| 1777649636 | 16.11° C | 49% | 1012.2 hPa | 0 mm | - | 939 W/m² | - |
* Rain latest hour (hover to see other rain measurements)
** Current wind speed in m/s (hover to see current wind gust speed)